createdAt,value
2018-03-11T00:03:30.908Z,91.79
2018-03-11T00:05:59.252Z,91.40
2018-03-11T00:08:26.846Z,91.61
2018-03-11T00:10:54.451Z,92.06
2018-03-11T00:13:22.760Z,91.66
2018-03-11T00:15:51.435Z,91.30
2018-03-11T00:18:19.751Z,91.81
2018-03-11T00:20:47.322Z,91.58
2018-03-11T00:23:15.108Z,91.35
2018-03-11T00:25:42.711Z,91.79
2018-03-11T00:28:10.918Z,91.48
2018-03-11T00:30:39.480Z,91.44
2018-03-11T00:33:07.000Z,91.98
2018-03-11T00:35:34.899Z,91.69
2018-03-11T00:38:02.434Z,91.52
2018-03-11T00:40:30.208Z,92.75
2018-03-11T00:42:58.554Z,92.11
2018-03-11T00:45:26.155Z,92.43
2018-03-11T00:47:53.838Z,92.20
2018-03-11T00:50:21.394Z,91.66
2018-03-11T00:52:50.674Z,91.43
2018-03-11T00:55:18.968Z,91.92
2018-03-11T00:57:47.410Z,92.50
2018-03-11T01:00:15.320Z,91.96
2018-03-11T01:02:43.522Z,91.49
2018-03-11T01:05:11.963Z,92.37
2018-03-11T01:07:39.510Z,92.15
2018-03-11T01:10:07.060Z,92.71
2018-03-11T01:12:35.264Z,91.88
2018-03-11T01:15:02.857Z,92.51
2018-03-11T01:17:30.871Z,91.86
2018-03-11T01:19:59.466Z,91.82
2018-03-11T01:22:26.988Z,92.47
2018-03-11T01:24:54.843Z,93.07
2018-03-11T01:27:22.827Z,92.50
2018-03-11T01:29:53.585Z,92.57
2018-03-11T01:32:21.624Z,91.75
2018-03-11T01:34:52.659Z,92.29
2018-03-11T01:37:20.421Z,92.38
2018-03-11T01:39:47.987Z,92.54
2018-03-11T01:42:15.543Z,92.49
2018-03-11T01:44:43.268Z,92.41
2018-03-11T01:47:11.695Z,92.77
2018-03-11T01:49:40.100Z,93.33
2018-03-11T01:52:08.424Z,93.26
2018-03-11T01:54:36.771Z,92.42
2018-03-11T01:57:04.372Z,93.46
2018-03-11T01:59:32.561Z,93.11
2018-03-11T02:02:01.094Z,93.77
2018-03-11T02:04:28.800Z,92.90
2018-03-11T02:06:56.372Z,92.83
2018-03-11T02:09:23.939Z,93.49
2018-03-11T02:11:51.464Z,92.55
2018-03-11T02:14:20.092Z,92.51
2018-03-11T02:16:47.620Z,92.75
2018-03-11T02:19:15.171Z,92.24
2018-03-11T02:21:42.694Z,91.65
2018-03-11T02:24:10.252Z,91.52
2018-03-11T02:26:37.771Z,91.12
2018-03-11T02:29:05.294Z,92.30
2018-03-11T02:31:32.861Z,91.77
2018-03-11T02:34:00.379Z,91.76
2018-03-11T02:36:27.943Z,91.36
2018-03-11T02:38:55.468Z,91.08
2018-03-11T02:41:23.043Z,90.66
2018-03-11T02:43:50.574Z,90.35
2018-03-11T02:46:18.128Z,90.67
2018-03-11T02:48:45.701Z,90.48
2018-03-11T02:51:13.257Z,90.45
2018-03-11T02:53:40.783Z,90.60
2018-03-11T02:56:08.305Z,90.29
2018-03-11T02:58:35.864Z,90.06
2018-03-11T03:01:03.372Z,89.89
2018-03-11T03:03:30.925Z,90.30
2018-03-11T03:05:58.456Z,89.96
2018-03-11T03:08:26.007Z,89.71
2018-03-11T03:10:53.552Z,89.72
2018-03-11T03:13:21.124Z,89.47
2018-03-11T03:15:48.652Z,89.42
2018-03-11T03:18:16.222Z,89.81
2018-03-11T03:20:43.784Z,89.83
2018-03-11T03:23:11.310Z,90.07
2018-03-11T03:25:38.867Z,90.04
2018-03-11T03:28:06.394Z,90.11
2018-03-11T03:30:33.951Z,90.31
2018-03-11T03:33:01.488Z,90.93
2018-03-11T03:35:29.044Z,90.82
2018-03-11T03:37:56.611Z,90.84
2018-03-11T03:40:24.156Z,90.65
2018-03-11T03:42:51.673Z,90.82
2018-03-11T03:45:19.227Z,90.57
2018-03-11T03:47:46.772Z,91.15
2018-03-11T03:50:14.404Z,90.88
2018-03-11T03:52:41.955Z,90.67
2018-03-11T03:55:09.494Z,90.41
2018-03-11T03:57:37.061Z,90.54
2018-03-11T04:00:04.622Z,90.74
2018-03-11T04:02:32.208Z,90.75
2018-03-11T04:04:59.782Z,90.58
2018-03-11T04:07:27.334Z,90.51
2018-03-11T04:09:54.867Z,91.05
2018-03-11T04:12:23.251Z,90.98
2018-03-11T04:14:50.779Z,90.79
2018-03-11T04:17:18.302Z,91.31
2018-03-11T04:19:45.859Z,91.99
2018-03-11T04:22:13.388Z,91.57
2018-03-11T04:24:40.945Z,91.13
2018-03-11T04:27:08.494Z,90.94
2018-03-11T04:29:36.082Z,91.02
2018-03-11T04:32:03.628Z,90.86
2018-03-11T04:34:31.207Z,91.49
2018-03-11T04:36:58.796Z,91.98
2018-03-11T04:39:26.376Z,91.97
2018-03-11T04:41:54.646Z,91.56
2018-03-11T04:44:22.163Z,91.74
2018-03-11T04:46:49.740Z,91.73
2018-03-11T04:49:17.263Z,91.14
2018-03-11T04:51:44.908Z,91.48
2018-03-11T04:54:12.435Z,91.82
2018-03-11T04:56:40.319Z,91.42
2018-03-11T04:59:08.110Z,91.42
2018-03-11T05:01:35.922Z,93.82
2018-03-11T05:04:03.443Z,92.83
2018-03-11T05:06:31.007Z,91.67
2018-03-11T05:08:58.536Z,91.44
2018-03-11T05:11:26.108Z,91.32
2018-03-11T05:13:53.642Z,91.74
2018-03-11T05:16:21.156Z,91.39
2018-03-11T05:18:48.719Z,91.05
2018-03-11T05:21:16.297Z,92.30
2018-03-11T05:23:43.861Z,91.44
2018-03-11T05:26:11.394Z,90.95
2018-03-11T05:28:38.959Z,90.77
2018-03-11T05:31:06.499Z,90.72
2018-03-11T05:33:34.131Z,90.42
2018-03-11T05:36:01.662Z,90.04
2018-03-11T05:38:29.224Z,91.54
2018-03-11T05:40:56.742Z,91.39
2018-03-11T05:43:24.911Z,91.10
2018-03-11T05:45:52.429Z,91.16
2018-03-11T05:48:19.965Z,90.84
2018-03-11T05:50:47.542Z,90.94
2018-03-11T05:53:15.074Z,91.20
2018-03-11T05:55:42.652Z,91.07
2018-03-11T05:58:10.176Z,91.04
2018-03-11T06:00:37.755Z,91.42
2018-03-11T06:03:05.365Z,91.02
2018-03-11T06:05:32.961Z,92.46
2018-03-11T06:08:00.505Z,92.80
2018-03-11T06:10:28.095Z,91.99
2018-03-11T06:12:55.610Z,91.34
2018-03-11T06:15:23.160Z,91.06
2018-03-11T06:17:50.722Z,90.78
2018-03-11T06:20:18.248Z,90.97
2018-03-11T06:22:45.822Z,91.07
2018-03-11T06:25:13.353Z,91.04
2018-03-11T06:27:40.909Z,91.17
2018-03-11T06:30:08.454Z,91.50
2018-03-11T06:32:36.016Z,92.56
2018-03-11T06:35:03.556Z,93.20
2018-03-11T06:37:31.120Z,93.09
2018-03-11T06:39:58.633Z,92.80
2018-03-11T06:42:26.164Z,91.99
2018-03-11T06:44:53.737Z,91.46
2018-03-11T06:47:21.255Z,91.83
2018-03-11T06:49:48.815Z,91.57
2018-03-11T06:52:16.420Z,91.76
2018-03-11T06:54:43.993Z,93.82
2018-03-11T06:57:11.509Z,92.82
2018-03-11T06:59:39.091Z,92.16
2018-03-11T07:02:09.547Z,91.61
2018-03-11T07:04:37.207Z,91.34
2018-03-11T07:07:06.962Z,91.45
2018-03-11T07:09:34.701Z,91.57
2018-03-11T07:12:02.233Z,91.35
2018-03-11T07:14:29.770Z,91.77
2018-03-11T07:16:57.328Z,91.31
2018-03-11T07:19:25.294Z,91.07
2018-03-11T07:21:52.846Z,90.84
2018-03-11T07:24:20.363Z,91.18
2018-03-11T07:26:47.916Z,91.51
2018-03-11T07:29:15.463Z,91.74
2018-03-11T07:31:43.018Z,91.33
2018-03-11T07:34:10.541Z,91.43
2018-03-11T07:36:38.099Z,91.52
2018-03-11T07:39:05.622Z,92.03
2018-03-11T07:41:33.186Z,91.71
2018-03-11T07:44:00.699Z,91.45
2018-03-11T07:46:28.230Z,91.60
2018-03-11T07:48:55.782Z,92.46
2018-03-11T07:51:23.322Z,91.89
2018-03-11T07:53:50.884Z,92.18
2018-03-11T07:56:18.404Z,91.69
2018-03-11T07:58:45.981Z,91.38
2018-03-11T08:01:13.529Z,90.97
2018-03-11T08:03:41.095Z,90.66
2018-03-11T08:06:08.608Z,90.48
2018-03-11T08:08:36.350Z,90.22
2018-03-11T08:11:04.047Z,90.19
2018-03-11T08:13:31.567Z,89.94
2018-03-11T08:15:59.148Z,89.80
2018-03-11T08:18:26.674Z,90.04
2018-03-11T08:20:54.263Z,89.84
2018-03-11T08:23:21.817Z,89.95
2018-03-11T08:25:49.425Z,90.34
2018-03-11T08:28:16.923Z,90.08
2018-03-11T08:30:44.508Z,90.24
2018-03-11T08:33:12.033Z,90.55
2018-03-11T08:35:39.789Z,90.88
2018-03-11T08:38:07.448Z,90.36
2018-03-11T08:40:34.996Z,89.99
2018-03-11T08:43:02.537Z,89.93
2018-03-11T08:45:30.079Z,89.02
2018-03-11T08:47:57.605Z,88.57
2018-03-11T08:50:25.605Z,88.99
2018-03-11T08:52:53.149Z,89.11
2018-03-11T08:55:20.714Z,88.73
2018-03-11T08:57:48.248Z,88.34
2018-03-11T09:00:15.803Z,87.90
2018-03-11T09:02:43.329Z,87.87
2018-03-11T09:05:10.896Z,87.63
2018-03-11T09:07:38.411Z,87.13
2018-03-11T09:10:05.976Z,86.70
2018-03-11T09:12:33.509Z,86.97
2018-03-11T09:15:01.076Z,86.18
2018-03-11T09:17:28.628Z,86.31
2018-03-11T09:19:56.211Z,85.88
2018-03-11T09:22:23.732Z,85.68
2018-03-11T09:24:51.255Z,86.32
2018-03-11T09:27:19.116Z,85.78
2018-03-11T09:29:46.626Z,86.04
2018-03-11T09:32:14.180Z,86.12
2018-03-11T09:34:41.697Z,86.46
2018-03-11T09:37:09.272Z,86.80
2018-03-11T09:39:36.893Z,87.23
2018-03-11T09:42:04.440Z,87.80
2018-03-11T09:44:31.955Z,88.37
2018-03-11T09:46:59.510Z,88.94
2018-03-11T09:49:27.144Z,89.29
2018-03-11T09:51:54.692Z,89.77
2018-03-11T09:54:22.242Z,90.23
2018-03-11T09:56:49.784Z,90.40
2018-03-11T09:59:17.335Z,91.33
2018-03-11T10:01:44.850Z,91.19
2018-03-11T10:04:12.404Z,91.02
2018-03-11T10:06:39.921Z,91.67
2018-03-11T10:09:07.481Z,92.15
2018-03-11T10:11:35.006Z,92.21
2018-03-11T10:14:02.610Z,92.10
2018-03-11T10:16:31.244Z,93.12
2018-03-11T10:18:59.013Z,92.66
2018-03-11T10:21:29.477Z,93.12
2018-03-11T10:23:57.217Z,93.21
2018-03-11T10:26:28.242Z,92.87
2018-03-11T10:28:59.548Z,93.17
2018-03-11T10:31:27.423Z,92.85
2018-03-11T10:33:54.975Z,92.97
2018-03-11T10:36:22.536Z,93.04
2018-03-11T10:38:50.072Z,93.86
2018-03-11T10:41:17.656Z,93.65
2018-03-11T10:43:45.211Z,93.31
2018-03-11T10:46:12.768Z,92.79
2018-03-11T10:48:40.916Z,93.48
2018-03-11T10:51:08.564Z,93.60
2018-03-11T10:53:36.558Z,93.14
2018-03-11T10:56:04.280Z,92.50
2018-03-11T10:58:31.796Z,93.05
2018-03-11T11:01:17.690Z,92.26
2018-03-11T11:03:50.925Z,91.54
2018-03-11T11:06:19.581Z,91.25
2018-03-11T11:08:47.127Z,91.58
2018-03-11T11:11:15.542Z,93.07
2018-03-11T11:13:43.079Z,92.14
2018-03-11T11:16:10.969Z,91.57
2018-03-11T11:18:39.215Z,91.62
2018-03-11T11:21:06.921Z,91.69
2018-03-11T11:23:34.501Z,91.81
2018-03-11T11:26:02.055Z,91.33
2018-03-11T11:28:30.550Z,91.09
2018-03-11T11:30:58.109Z,91.03
2018-03-11T11:33:25.899Z,91.67
2018-03-11T11:35:55.189Z,91.37
2018-03-11T11:38:24.699Z,90.84
2018-03-11T11:40:53.000Z,90.67
2018-03-11T11:43:21.166Z,90.54
2018-03-11T11:45:49.480Z,90.32
2018-03-11T11:48:17.260Z,90.19
2018-03-11T11:50:45.361Z,91.46
2018-03-11T11:53:12.902Z,93.57
2018-03-11T11:55:40.455Z,93.80
2018-03-11T11:58:08.154Z,94.16
2018-03-11T12:00:36.337Z,93.52
2018-03-11T12:03:03.863Z,92.58
2018-03-11T12:05:31.481Z,92.21
2018-03-11T12:07:59.066Z,91.41
2018-03-11T12:10:28.269Z,90.98
2018-03-11T12:12:57.189Z,90.11
2018-03-11T12:15:24.712Z,90.04
2018-03-11T12:17:55.238Z,90.65
2018-03-11T12:20:23.400Z,89.37
2018-03-11T12:22:52.385Z,89.30
2018-03-11T12:25:21.192Z,88.81
2018-03-11T12:27:49.584Z,87.54
2018-03-11T12:30:17.101Z,89.83
2018-03-11T12:32:44.677Z,89.57
2018-03-11T12:35:13.020Z,89.44
2018-03-11T12:37:41.157Z,88.22
2018-03-11T12:40:09.122Z,88.32
2018-03-11T12:42:37.060Z,87.55
2018-03-11T12:45:08.291Z,86.98
2018-03-11T12:47:36.048Z,87.70
2018-03-11T12:50:04.781Z,87.62
2018-03-11T12:52:32.463Z,87.21
2018-03-11T12:54:59.983Z,87.65
2018-03-11T12:57:27.536Z,88.12
2018-03-11T12:59:55.064Z,87.84
2018-03-11T13:02:22.687Z,87.89
2018-03-11T13:04:50.213Z,86.94
2018-03-11T13:07:17.774Z,86.86
2018-03-11T13:09:45.322Z,87.38
2018-03-11T13:12:12.867Z,87.08
2018-03-11T13:14:40.429Z,88.28
2018-03-11T13:17:08.051Z,87.38
2018-03-11T13:19:35.576Z,86.79
2018-03-11T13:22:03.132Z,86.56
2018-03-11T13:24:30.782Z,85.63
2018-03-11T13:26:58.351Z,87.07
2018-03-11T13:29:25.920Z,86.43
2018-03-11T13:31:53.491Z,86.10
2018-03-11T13:34:27.586Z,86.10
2018-03-11T13:36:56.743Z,85.78
2018-03-11T13:39:36.144Z,85.39
2018-03-11T13:42:03.701Z,85.61
2018-03-11T13:44:31.227Z,85.48
2018-03-11T13:47:08.776Z,85.78
2018-03-11T13:49:36.923Z,85.80
2018-03-11T13:52:16.470Z,85.30
2018-03-11T13:54:45.766Z,85.49
2018-03-11T14:00:25.742Z,85.51
2018-03-11T14:02:53.633Z,85.47
2018-03-11T14:05:21.973Z,85.41
2018-03-11T14:07:54.489Z,85.87
2018-03-11T14:10:22.288Z,85.63
2018-03-11T14:12:49.908Z,85.40
2018-03-11T14:15:18.533Z,85.94
2018-03-11T14:17:46.115Z,85.66
2018-03-11T14:20:16.939Z,85.19
2018-03-11T14:22:48.761Z,85.39
2018-03-11T14:25:16.494Z,85.19
2018-03-11T14:27:46.918Z,85.56
2018-03-11T14:30:15.333Z,86.36
2018-03-11T14:32:42.858Z,85.14
2018-03-11T14:35:11.116Z,84.55
2018-03-11T14:37:38.664Z,84.55
2018-03-11T14:40:06.176Z,84.37
2018-03-11T14:42:33.964Z,84.47
2018-03-11T14:45:04.843Z,84.83
2018-03-11T14:47:32.578Z,84.94
2018-03-11T14:50:02.431Z,84.77
2018-03-11T14:52:30.443Z,84.09
2018-03-11T14:54:58.079Z,84.29
2018-03-11T14:57:27.867Z,83.88
2018-03-11T14:59:58.396Z,83.07
2018-03-11T15:02:26.026Z,83.16
2018-03-11T15:04:56.225Z,83.32
2018-03-11T15:07:25.970Z,83.62
2018-03-11T15:09:53.628Z,83.78
2018-03-11T15:12:24.651Z,83.35
2018-03-11T15:14:52.360Z,83.29
2018-03-11T15:17:20.953Z,83.86
2018-03-11T15:19:49.877Z,83.76
2018-03-11T15:22:20.312Z,86.31
2018-03-11T15:24:47.876Z,85.39
2018-03-11T15:27:17.920Z,85.26
2018-03-11T15:29:47.109Z,85.11
2018-03-11T15:32:14.886Z,85.13
2018-03-11T15:34:45.505Z,84.79
2018-03-11T15:37:16.299Z,85.31
2018-03-11T15:39:43.922Z,85.24
2018-03-11T15:42:12.412Z,85.01
2018-03-11T15:44:41.312Z,85.13
2018-03-11T15:47:09.061Z,84.86
2018-03-11T15:49:36.947Z,84.73
2018-03-11T15:52:05.615Z,84.30
2018-03-11T15:54:34.913Z,84.18
2018-03-11T15:57:02.990Z,84.08
2018-03-11T15:59:36.244Z,84.18
2018-03-11T16:02:04.959Z,84.35
2018-03-11T16:04:32.595Z,83.62
2018-03-11T16:07:03.476Z,83.85
2018-03-11T16:09:33.986Z,84.43
2018-03-11T16:12:01.665Z,84.71
2018-03-11T16:14:32.490Z,85.39
2018-03-11T16:17:03.074Z,85.16
2018-03-11T16:19:30.815Z,84.61
2018-03-11T16:21:58.331Z,84.24
2018-03-11T16:24:28.558Z,84.65
2018-03-11T16:26:53.403Z,84.28
2018-03-11T16:29:21.002Z,84.06
2018-03-11T16:31:48.550Z,84.31
2018-03-11T16:34:16.116Z,84.50
2018-03-11T16:36:43.638Z,84.41
2018-03-11T16:39:11.202Z,84.69
2018-03-11T16:41:38.730Z,84.70
2018-03-11T16:44:06.294Z,84.45
2018-03-11T16:46:33.815Z,84.58
2018-03-11T16:49:01.375Z,84.32
2018-03-11T16:51:28.990Z,84.29
2018-03-11T16:53:56.977Z,84.44
2018-03-11T16:56:26.199Z,84.43
2018-03-11T16:58:57.269Z,84.37
2018-03-11T17:01:28.876Z,84.15
2018-03-11T17:03:56.606Z,84.32
2018-03-11T17:06:24.315Z,84.39
2018-03-11T17:08:54.940Z,84.48
2018-03-11T17:11:28.344Z,84.47
2018-03-11T17:14:04.899Z,84.50
2018-03-11T17:16:33.088Z,84.71
2018-03-11T17:19:02.663Z,84.78
2018-03-11T17:21:30.831Z,84.85
2018-03-11T17:23:59.758Z,84.99
2018-03-11T17:26:27.551Z,85.05
2018-03-11T17:28:55.080Z,85.12
2018-03-11T17:31:22.626Z,85.20
2018-03-11T17:33:50.165Z,85.24
2018-03-11T17:36:17.719Z,85.32
2018-03-11T17:38:47.083Z,85.36
2018-03-11T17:41:14.684Z,85.45
2018-03-11T17:43:43.573Z,85.36
2018-03-11T17:46:11.184Z,85.53
2018-03-11T17:48:39.098Z,85.54
2018-03-11T17:51:06.691Z,85.96
2018-03-11T17:53:34.232Z,85.85
2018-03-11T17:56:02.312Z,85.87
2018-03-11T17:58:29.863Z,86.10
2018-03-11T18:00:57.422Z,86.00
2018-03-11T18:03:24.986Z,85.99
2018-03-11T18:05:52.520Z,85.85
2018-03-11T18:08:21.220Z,86.00
2018-03-11T18:10:48.749Z,85.87
2018-03-11T18:13:16.327Z,85.84
2018-03-11T18:15:43.905Z,86.54
2018-03-11T18:18:11.427Z,87.06
2018-03-11T18:20:39.005Z,86.84
2018-03-11T18:23:07.555Z,86.94
2018-03-11T18:25:35.140Z,87.10
2018-03-11T18:28:02.673Z,86.74
2018-03-11T18:30:30.246Z,86.61
2018-03-11T18:32:57.780Z,86.54
2018-03-11T18:35:25.511Z,86.59
2018-03-11T18:37:53.050Z,86.70
2018-03-11T18:40:20.612Z,86.64
2018-03-11T18:42:48.148Z,87.30
2018-03-11T18:45:15.728Z,88.79
2018-03-11T18:47:43.253Z,88.09
2018-03-11T18:50:10.813Z,87.52
2018-03-11T18:52:39.266Z,87.27
2018-03-11T18:55:06.888Z,86.99
2018-03-11T18:57:34.426Z,87.08
2018-03-11T19:00:03.116Z,87.04
2018-03-11T19:02:30.667Z,87.19
2018-03-11T19:04:58.220Z,87.05
2018-03-11T19:07:25.753Z,87.12
2018-03-11T19:09:53.312Z,87.37
2018-03-11T19:12:20.865Z,87.26
2018-03-11T19:14:48.423Z,87.40
2018-03-11T19:17:15.960Z,87.14
2018-03-11T19:19:43.508Z,87.23
2018-03-11T19:22:11.056Z,87.11
2018-03-11T19:24:38.636Z,87.14
2018-03-11T19:27:06.218Z,87.16
2018-03-11T19:29:33.744Z,87.27
2018-03-11T19:32:01.292Z,87.30
2018-03-11T19:34:28.910Z,87.13
2018-03-11T19:36:56.420Z,87.06
2018-03-11T19:39:23.981Z,87.06
2018-03-11T19:41:51.812Z,86.89
2018-03-11T19:44:19.641Z,87.04
2018-03-11T19:46:49.591Z,87.10
2018-03-11T19:49:17.204Z,87.62
2018-03-11T19:51:44.784Z,87.42
2018-03-11T19:54:12.311Z,87.59
2018-03-11T19:56:39.873Z,88.07
2018-03-11T19:59:07.524Z,87.76
2018-03-11T20:01:35.573Z,87.49
2018-03-11T20:04:03.265Z,87.45
2018-03-11T20:06:30.864Z,87.55
2018-03-11T20:08:58.411Z,87.53
2018-03-11T20:11:26.206Z,87.56
2018-03-11T20:13:53.789Z,87.46
2018-03-11T20:16:21.367Z,87.58
2018-03-11T20:18:48.895Z,87.51
2018-03-11T20:21:16.441Z,87.33
2018-03-11T20:23:45.241Z,87.51
2018-03-11T20:26:13.228Z,87.65
2018-03-11T20:28:41.119Z,87.57
2018-03-11T20:31:08.663Z,87.59
2018-03-11T20:33:36.231Z,87.64
2018-03-11T20:36:03.787Z,87.69
2018-03-11T20:38:31.427Z,87.63
2018-03-11T20:40:58.985Z,87.45
2018-03-11T20:43:26.608Z,87.61
2018-03-11T20:45:54.140Z,87.78
2018-03-11T20:48:21.749Z,87.77
2018-03-11T20:50:49.273Z,87.74
2018-03-11T20:53:16.847Z,87.74
2018-03-11T20:55:44.425Z,87.52
2018-03-11T20:58:12.012Z,87.51
2018-03-11T21:00:39.544Z,87.61
2018-03-11T21:03:07.115Z,87.68
2018-03-11T21:05:34.640Z,87.60
2018-03-11T21:08:02.213Z,87.53
2018-03-11T21:10:29.744Z,87.74
2018-03-11T21:12:57.426Z,87.60
2018-03-11T21:15:24.915Z,88.14
2018-03-11T21:17:52.488Z,87.66
2018-03-11T21:20:20.019Z,88.01
2018-03-11T21:22:47.597Z,88.09
2018-03-11T21:25:15.130Z,88.26
2018-03-11T21:27:42.690Z,88.02
2018-03-11T21:30:10.228Z,87.74
2018-03-11T21:32:37.842Z,87.69
2018-03-11T21:35:05.366Z,87.72
2018-03-11T21:37:33.458Z,87.71
2018-03-11T21:40:00.984Z,87.74
2018-03-11T21:42:28.540Z,87.69
2018-03-11T21:44:56.068Z,87.86
2018-03-11T21:47:23.628Z,88.11
2018-03-11T21:49:51.164Z,88.01
2018-03-11T21:52:18.719Z,88.06
2018-03-11T21:54:46.296Z,88.07
2018-03-11T21:57:13.875Z,88.07
2018-03-11T21:59:41.416Z,88.02
2018-03-11T22:02:08.975Z,87.83
2018-03-11T22:04:39.415Z,87.86
2018-03-11T22:07:08.614Z,88.14
2018-03-11T22:09:37.133Z,88.35
2018-03-11T22:12:05.364Z,88.04
2018-03-11T22:14:35.940Z,87.76
2018-03-11T22:17:05.022Z,87.85
2018-03-11T22:19:34.657Z,87.97
2018-03-11T22:22:04.298Z,88.08
2018-03-11T22:24:33.583Z,88.22
2018-03-11T22:27:02.785Z,88.10
2018-03-11T22:29:31.005Z,88.28
2018-03-11T22:31:59.593Z,88.19
2018-03-11T22:34:29.848Z,88.16
2018-03-11T22:36:59.218Z,88.11
2018-03-11T22:39:28.339Z,87.26
2018-03-11T22:41:57.550Z,87.53
2018-03-11T22:44:27.632Z,90.24
2018-03-11T22:46:57.528Z,89.67
2018-03-11T22:49:27.023Z,89.31
2018-03-11T22:51:57.062Z,88.81
2018-03-11T22:54:25.482Z,89.29
2018-03-11T22:56:55.290Z,88.95
2018-03-11T22:59:23.360Z,88.77
2018-03-11T23:01:51.790Z,88.54
2018-03-11T23:04:20.425Z,88.45
2018-03-11T23:06:50.749Z,88.07
2018-03-11T23:09:21.021Z,88.25
2018-03-11T23:11:48.896Z,88.38
2018-03-11T23:14:16.468Z,88.86
2018-03-11T23:16:43.984Z,88.28
2018-03-11T23:19:24.030Z,88.07
2018-03-11T23:21:52.464Z,88.26
2018-03-11T23:24:20.455Z,88.20
2018-03-11T23:26:49.289Z,88.15
2018-03-11T23:29:19.004Z,88.36
2018-03-11T23:31:46.867Z,88.49
2018-03-11T23:34:15.187Z,88.51
2018-03-11T23:36:43.060Z,88.62
2018-03-11T23:39:10.899Z,88.65
2018-03-11T23:41:42.584Z,88.42
2018-03-11T23:44:11.423Z,88.26
2018-03-11T23:46:39.136Z,88.75
2018-03-11T23:49:07.667Z,88.59
2018-03-11T23:51:35.815Z,88.55
2018-03-11T23:54:04.474Z,88.55
2018-03-11T23:56:36.901Z,88.83
2018-03-11T23:59:07.885Z,88.79
